Time;durP1;ratioP1;P1;durP2;ratioP2;P2;SDS_P1;SDS_P2;PMS_P1;PMS_P2;Temp;Humidity;BMP_temperature;BMP_pressure;BME280_temperature;BME280_humidity;BME280_pressure;Samples;Min_cycle;Max_cycle;Signal;HPM_P1;HPM_P2
2024/03/19 00:02:29;;;;;;;0.00;0.00;;;20.10;45.30;;;;;;5033061;28;20192;-49
2024/03/19 00:05:00;;;;;;;0.10;0.10;;;20.10;45.20;;;;;;5032768;28;20200;-47
2024/03/19 00:07:32;;;;;;;0.10;0.10;;;20.10;45.20;;;;;;5032362;28;20192;-49
2024/03/19 00:10:03;;;;;;;0.00;0.00;;;20.10;45.20;;;;;;5032420;28;20734;-47
2024/03/19 00:12:34;;;;;;;0.00;0.00;;;20.10;45.10;;;;;;5033318;28;20199;-48
2024/03/19 00:15:05;;;;;;;0.00;0.00;;;20.10;45.10;;;;;;5033356;28;20200;-47
2024/03/19 00:17:36;;;;;;;0.00;0.00;;;20.10;45.10;;;;;;5032255;28;20722;-49
2024/03/19 00:20:09;;;;;;;0.00;0.00;;;20.10;45.00;;;;;;5032645;28;20204;-47
2024/03/19 00:22:41;;;;;;;0.10;0.10;;;20.20;45.00;;;;;;5032836;28;20216;-54
2024/03/19 00:25:12;;;;;;;0.00;0.00;;;20.20;45.00;;;;;;5031795;28;20661;-49
2024/03/19 00:27:43;;;;;;;0.00;0.00;;;20.20;45.00;;;;;;5031219;28;20734;-50
2024/03/19 00:30:14;;;;;;;0.00;0.00;;;20.20;45.00;;;;;;5029233;28;20218;-52
2024/03/19 00:32:44;;;;;;;0.10;0.10;;;20.20;45.00;;;;;;5029136;28;20613;-48
2024/03/19 00:35:15;;;;;;;0.00;0.00;;;20.20;44.90;;;;;;5029383;28;20196;-51
2024/03/19 00:37:48;;;;;;;0.00;0.00;;;20.20;44.90;;;;;;5028245;28;20703;-48
2024/03/19 00:40:18;;;;;;;0.00;0.00;;;20.20;44.80;;;;;;5028952;28;20213;-52
2024/03/19 00:42:50;;;;;;;0.00;0.00;;;20.30;44.80;;;;;;5029643;28;20761;-49
2024/03/19 00:45:20;;;;;;;0.00;0.00;;;20.30;44.80;;;;;;5028706;28;20243;-50
2024/03/19 00:47:51;;;;;;;0.00;0.00;;;20.30;44.80;;;;;;5028069;28;20196;-49
2024/03/19 00:50:22;;;;;;;0.00;0.00;;;20.30;44.70;;;;;;5028716;28;20713;-46
2024/03/19 00:52:54;;;;;;;0.00;0.00;;;20.30;44.70;;;;;;5029153;28;20220;-49
2024/03/19 00:55:25;;;;;;;0.00;0.00;;;20.40;44.80;;;;;;5028829;28;20519;-51
2024/03/19 00:57:56;;;;;;;0.00;0.00;;;20.40;44.70;;;;;;5029417;28;20223;-47
2024/03/19 01:00:26;;;;;;;0.00;0.00;;;20.40;44.70;;;;;;5028512;28;20724;-48
2024/03/19 01:02:57;;;;;;;0.00;0.00;;;20.40;44.60;;;;;;5028616;28;20727;-50
2024/03/19 01:05:28;;;;;;;0.00;0.00;;;20.40;44.70;;;;;;5028634;28;20690;-47
2024/03/19 01:08:01;;;;;;;0.00;0.00;;;20.40;44.70;;;;;;5028105;28;20208;-46
2024/03/19 01:10:33;;;;;;;0.00;0.00;;;20.40;44.60;;;;;;5028696;28;20703;-51
2024/03/19 01:13:03;;;;;;;0.00;0.00;;;20.40;44.60;;;;;;5028023;28;20227;-49
2024/03/19 01:15:34;;;;;;;0.00;0.00;;;20.40;44.60;;;;;;5028882;28;20542;-51
2024/03/19 01:18:05;;;;;;;0.10;0.10;;;20.50;44.60;;;;;;5027457;28;20699;-48
2024/03/19 01:20:36;;;;;;;0.08;0.08;;;20.40;44.50;;;;;;5028427;28;20567;-49
2024/03/19 01:23:08;;;;;;;0.00;0.00;;;20.50;44.50;;;;;;5012820;28;20727;-47
2024/03/19 01:25:39;;;;;;;0.10;0.10;;;20.50;44.60;;;;;;5027895;28;20207;-50
2024/03/19 01:28:10;;;;;;;0.00;0.00;;;20.50;44.50;;;;;;5029064;28;20216;-49
2024/03/19 01:30:40;;;;;;;0.00;0.00;;;20.50;44.50;;;;;;5028020;28;20283;-49
2024/03/19 01:33:11;;;;;;;0.10;0.10;;;20.50;44.40;;;;;;5027147;28;20228;-49
2024/03/19 01:35:42;;;;;;;0.00;0.00;;;20.50;44.40;;;;;;5026981;28;20254;-51
2024/03/19 01:38:14;;;;;;;0.00;0.00;;;20.50;44.40;;;;;;5026073;28;20234;-49
2024/03/19 01:40:49;;;;;;;0.00;0.00;;;20.60;44.30;;;;;;5027208;28;20196;-49
2024/03/19 01:43:21;;;;;;;0.00;0.00;;;20.60;44.30;;;;;;5027676;28;20308;-49
2024/03/19 01:46:27;;;;;;;0.00;0.00;;;20.60;44.30;;;;;;5027528;28;20208;-48
2024/03/19 01:48:59;;;;;;;0.00;0.00;;;20.60;44.30;;;;;;5027115;28;20310;-49
2024/03/19 01:51:31;;;;;;;0.03;0.03;;;20.60;44.10;;;;;;5028754;28;20225;-52
2024/03/19 01:54:04;;;;;;;0.00;0.00;;;20.60;44.10;;;;;;5027964;28;20227;-49
2024/03/19 01:56:35;;;;;;;0.00;0.00;;;20.60;44.20;;;;;;5028341;28;20242;-48
2024/03/19 01:59:06;;;;;;;0.00;0.00;;;20.60;44.20;;;;;;5027824;28;20204;-48
2024/03/19 02:01:37;;;;;;;0.10;0.10;;;20.60;44.10;;;;;;5027509;28;20196;-49
2024/03/19 02:04:08;;;;;;;0.10;0.10;;;20.60;44.00;;;;;;5027868;28;20281;-47
2024/03/19 02:06:38;;;;;;;0.00;0.00;;;20.60;44.00;;;;;;5029707;28;20196;-48
2024/03/19 02:09:13;;;;;;;0.10;0.10;;;20.60;43.90;;;;;;5030747;28;20208;-52
2024/03/19 02:11:44;;;;;;;0.00;0.00;;;20.70;43.90;;;;;;5030982;28;20567;-50
2024/03/19 02:14:14;;;;;;;0.03;0.03;;;20.70;43.80;;;;;;5030709;28;20297;-47
2024/03/19 02:16:45;;;;;;;0.03;0.03;;;20.70;44.50;;;;;;5030560;28;20188;-49
2024/03/19 02:19:16;;;;;;;0.10;0.10;;;20.70;43.80;;;;;;5030879;28;20204;-50
2024/03/19 02:21:47;;;;;;;0.00;0.00;;;20.70;43.80;;;;;;5031395;28;20443;-48
2024/03/19 02:24:19;;;;;;;0.00;0.00;;;20.70;43.70;;;;;;5030357;28;20228;-48
2024/03/19 02:26:50;;;;;;;0.10;0.10;;;20.80;43.70;;;;;;5025961;28;20707;-49
2024/03/19 02:29:20;;;;;;;0.00;0.00;;;20.80;43.70;;;;;;5019590;28;20589;-48
2024/03/19 02:31:51;;;;;;;0.10;0.10;;;20.80;43.70;;;;;;5026928;28;20543;-48
2024/03/19 02:34:22;;;;;;;0.00;0.00;;;20.80;43.80;;;;;;5018998;28;20224;-49
2024/03/19 02:36:52;;;;;;;0.00;0.00;;;20.80;43.80;;;;;;5027625;28;20234;-47
2024/03/19 02:39:25;;;;;;;0.10;0.10;;;20.80;43.80;;;;;;5027005;28;20200;-51
2024/03/19 02:41:56;;;;;;;0.08;0.08;;;20.80;43.80;;;;;;5027251;28;20307;-49
2024/03/19 02:44:26;;;;;;;0.00;0.00;;;20.80;43.80;;;;;;5027087;28;20687;-49
2024/03/19 02:46:57;;;;;;;0.00;0.00;;;20.80;43.70;;;;;;5028145;28;20258;-47
2024/03/19 02:49:28;;;;;;;0.10;0.10;;;20.90;43.60;;;;;;5031570;28;20196;-48
2024/03/19 02:51:58;;;;;;;0.00;0.00;;;20.90;43.40;;;;;;5030988;28;20212;-49
2024/03/19 02:54:31;;;;;;;0.00;0.00;;;20.90;43.40;;;;;;5031334;28;20223;-47
2024/03/19 02:57:02;;;;;;;0.10;0.10;;;20.90;43.20;;;;;;5031151;28;20756;-49
2024/03/19 02:59:32;;;;;;;0.00;0.00;;;20.90;43.20;;;;;;5030572;28;20196;-49
2024/03/19 03:02:03;;;;;;;0.10;0.10;;;21.00;43.20;;;;;;5030643;28;20687;-49
2024/03/19 03:04:34;;;;;;;0.00;0.00;;;21.00;43.30;;;;;;5030843;28;20220;-45
2024/03/19 03:07:05;;;;;;;0.00;0.00;;;21.00;43.30;;;;;;5031394;28;20250;-48
2024/03/19 03:09:37;;;;;;;0.00;0.00;;;21.10;43.30;;;;;;5030617;28;20220;-49
2024/03/19 03:12:08;;;;;;;0.00;0.00;;;21.10;43.20;;;;;;5031099;28;20193;-48
2024/03/19 03:14:39;;;;;;;0.00;0.00;;;21.10;43.10;;;;;;5030324;28;20652;-47
2024/03/19 03:17:10;;;;;;;0.05;0.05;;;21.10;43.10;;;;;;5031084;28;20212;-47
2024/03/19 03:19:40;;;;;;;0.10;0.10;;;21.10;43.00;;;;;;5030060;28;20660;-46
2024/03/19 03:22:11;;;;;;;0.00;0.00;;;21.10;43.00;;;;;;5030515;28;20226;-48
2024/03/19 03:24:45;;;;;;;0.00;0.00;;;21.20;43.50;;;;;;5031167;28;20210;-49
2024/03/19 03:27:15;;;;;;;0.08;0.08;;;21.20;42.90;;;;;;5029797;28;20277;-49
2024/03/19 03:29:46;;;;;;;0.10;0.10;;;21.20;42.90;;;;;;5029998;28;20303;-48
2024/03/19 03:32:17;;;;;;;0.00;0.00;;;21.20;42.90;;;;;;5029668;28;20215;-48
2024/03/19 03:34:47;;;;;;;0.00;0.00;;;21.20;42.80;;;;;;5031087;28;20204;-47
2024/03/19 03:37:18;;;;;;;0.00;0.00;;;21.30;42.80;;;;;;5029145;28;20652;-50
2024/03/19 03:39:50;;;;;;;0.00;0.00;;;21.30;42.80;;;;;;5030403;28;20208;-47
2024/03/19 03:42:21;;;;;;;0.00;0.00;;;21.30;42.80;;;;;;5030129;28;20405;-49
2024/03/19 03:44:52;;;;;;;0.10;0.10;;;21.30;42.80;;;;;;5029372;28;20203;-49
2024/03/19 03:47:23;;;;;;;0.00;0.00;;;21.40;42.80;;;;;;5029784;28;20420;-48
2024/03/19 03:49:53;;;;;;;0.00;0.00;;;21.40;42.70;;;;;;5030132;28;20383;-47
2024/03/19 03:52:25;;;;;;;0.10;0.10;;;21.40;42.70;;;;;;5030035;28;20200;-47
2024/03/19 03:54:58;;;;;;;0.00;0.00;;;21.40;42.50;;;;;;5030087;28;20296;-47
2024/03/19 03:57:28;;;;;;;0.00;0.00;;;21.50;42.50;;;;;;5029589;28;20210;-48
2024/03/19 03:59:59;;;;;;;0.00;0.00;;;21.50;42.40;;;;;;5029651;28;20762;-46
2024/03/19 04:02:30;;;;;;;0.00;0.00;;;21.50;42.30;;;;;;5030041;28;20573;-49
2024/03/19 04:05:00;;;;;;;0.00;0.00;;;21.50;42.30;;;;;;5030171;28;20203;-46
2024/03/19 04:07:31;;;;;;;0.05;0.05;;;21.60;42.30;;;;;;5029450;28;20204;-50
2024/03/19 04:10:05;;;;;;;0.00;0.00;;;21.60;42.20;;;;;;5030677;28;20549;-49
2024/03/19 04:12:36;;;;;;;0.00;0.00;;;21.60;42.10;;;;;;5029738;28;20638;-48
2024/03/19 04:15:07;;;;;;;0.00;0.00;;;21.60;41.80;;;;;;5029213;28;20207;-46
2024/03/19 04:17:38;;;;;;;0.00;0.00;;;21.60;41.70;;;;;;5029657;28;20239;-48
2024/03/19 04:20:11;;;;;;;0.00;0.00;;;21.70;41.60;;;;;;5029617;28;20200;-47
2024/03/19 04:22:41;;;;;;;0.00;0.00;;;21.70;41.50;;;;;;5029341;28;20216;-48
2024/03/19 04:25:14;;;;;;;0.00;0.00;;;21.70;41.50;;;;;;5029541;28;20207;-45
2024/03/19 04:27:45;;;;;;;0.10;0.10;;;21.70;41.50;;;;;;5027199;28;20243;-47
2024/03/19 04:30:16;;;;;;;0.00;0.00;;;21.70;41.30;;;;;;5018542;28;20718;-49
2024/03/19 04:32:46;;;;;;;0.00;0.00;;;21.70;41.30;;;;;;5009353;28;20903;-47
2024/03/19 04:35:17;;;;;;;0.00;0.00;;;21.80;41.20;;;;;;5015019;28;20204;-49
2024/03/19 04:37:48;;;;;;;0.00;0.00;;;21.80;41.90;;;;;;5029028;28;20255;-47
2024/03/19 04:40:24;;;;;;;0.00;0.00;;;21.80;41.10;;;;;;5012365;28;20200;-49
2024/03/19 04:42:54;;;;;;;0.00;0.00;;;21.90;41.20;;;;;;5028531;28;20228;-48
2024/03/19 04:45:25;;;;;;;0.00;0.00;;;21.90;41.10;;;;;;5028601;28;20228;-48
2024/03/19 04:47:55;;;;;;;0.00;0.00;;;21.90;41.00;;;;;;5028363;28;20984;-50
2024/03/19 04:50:26;;;;;;;0.00;0.00;;;21.90;41.00;;;;;;5028883;28;20200;-49
2024/03/19 04:52:57;;;;;;;0.10;0.10;;;21.90;40.90;;;;;;5028113;28;20228;-52
2024/03/19 04:55:29;;;;;;;0.00;0.00;;;22.00;40.80;;;;;;5028770;28;20208;-48
2024/03/19 04:58:00;;;;;;;0.00;0.00;;;22.00;40.80;;;;;;5028189;28;20216;-49
2024/03/19 05:00:30;;;;;;;0.00;0.00;;;22.00;40.80;;;;;;5028316;28;20200;-49
2024/03/19 05:03:01;;;;;;;0.00;0.00;;;22.10;40.80;;;;;;5027721;28;20223;-46
2024/03/19 05:05:32;;;;;;;0.00;0.00;;;22.10;40.80;;;;;;5027587;28;20235;-51
2024/03/19 05:08:02;;;;;;;0.08;0.08;;;22.10;40.80;;;;;;5029349;28;20254;-48
2024/03/19 05:10:35;;;;;;;0.00;0.00;;;22.10;40.90;;;;;;5027728;28;20207;-49
2024/03/19 05:13:06;;;;;;;0.00;0.00;;;22.10;40.80;;;;;;5028820;28;20289;-48
2024/03/19 05:15:36;;;;;;;0.05;0.05;;;22.20;40.70;;;;;;5028424;28;20202;-48
2024/03/19 05:18:07;;;;;;;0.05;0.05;;;22.20;40.70;;;;;;5027875;28;20307;-47
2024/03/19 05:20:38;;;;;;;0.10;0.10;;;22.20;40.80;;;;;;5028760;28;20246;-48
2024/03/19 05:23:09;;;;;;;0.00;0.00;;;22.20;40.80;;;;;;5027636;28;20224;-48
2024/03/19 05:25:41;;;;;;;0.00;0.00;;;22.20;40.70;;;;;;5028334;28;20411;-51
2024/03/19 05:28:12;;;;;;;0.05;0.05;;;22.20;40.80;;;;;;5028174;28;20291;-48
2024/03/19 05:30:43;;;;;;;0.00;0.00;;;22.30;40.80;;;;;;5028128;28;20200;-52
2024/03/19 05:33:14;;;;;;;0.00;0.00;;;22.30;40.90;;;;;;5028769;28;20224;-52
2024/03/19 05:35:45;;;;;;;0.00;0.00;;;22.30;40.80;;;;;;5027546;28;20212;-52
2024/03/19 05:38:16;;;;;;;0.00;0.00;;;22.30;40.80;;;;;;5027520;28;20232;-50
2024/03/19 05:40:48;;;;;;;0.00;0.00;;;22.30;40.70;;;;;;5027772;28;20266;-53
2024/03/19 05:43:19;;;;;;;0.00;0.00;;;22.30;40.50;;;;;;5026719;22;20228;-48
2024/03/19 05:45:50;;;;;;;0.00;0.00;;;22.20;40.40;;;;;;5008638;28;20536;-50
2024/03/19 05:48:21;;;;;;;0.10;0.10;;;22.30;40.40;;;;;;5008026;28;20255;-49
2024/03/19 05:50:51;;;;;;;0.00;0.00;;;22.30;40.30;;;;;;4991517;28;20194;-49
2024/03/19 05:53:22;;;;;;;0.00;0.00;;;22.30;40.30;;;;;;4988696;28;20228;-50
2024/03/19 05:55:54;;;;;;;0.00;0.00;;;22.20;40.20;;;;;;5015308;28;20586;-49
2024/03/19 05:58:25;;;;;;;0.10;0.10;;;22.20;40.20;;;;;;5027652;28;20305;-48
2024/03/19 06:00:56;;;;;;;0.00;0.00;;;22.20;40.80;;;;;;5027961;28;20223;-49
2024/03/19 06:03:27;;;;;;;0.10;0.10;;;22.20;40.20;;;;;;5025643;28;20307;-50
2024/03/19 06:05:59;;;;;;;0.00;0.00;;;22.20;40.20;;;;;;5011288;28;20204;-51
2024/03/19 06:08:30;;;;;;;0.00;0.00;;;22.20;40.10;;;;;;5011848;28;20196;-53
2024/03/19 06:11:03;;;;;;;0.03;0.03;;;22.20;40.10;;;;;;5011636;28;20232;-53
2024/03/19 06:13:33;;;;;;;0.00;0.00;;;22.20;40.10;;;;;;5011507;28;20630;-52
2024/03/19 06:16:05;;;;;;;0.00;0.00;;;22.10;40.10;;;;;;5011218;28;20201;-48
2024/03/19 06:18:37;;;;;;;0.00;0.00;;;22.10;40.20;;;;;;5011248;28;20220;-51
2024/03/19 06:21:07;;;;;;;0.00;0.00;;;22.10;40.10;;;;;;5011289;28;20205;-50
2024/03/19 06:23:38;;;;;;;0.00;0.00;;;22.10;40.10;;;;;;4998736;28;20240;-53
2024/03/19 06:26:10;;;;;;;0.00;0.00;;;22.10;40.10;;;;;;5015904;28;20204;-46
2024/03/19 06:28:41;;;;;;;0.00;0.00;;;22.10;40.20;;;;;;5018261;28;20200;-50
2024/03/19 06:31:11;;;;;;;0.00;0.00;;;22.00;40.70;;;;;;5017200;28;20196;-48
2024/03/19 06:33:42;;;;;;;0.00;0.00;;;22.00;40.10;;;;;;5016766;28;20803;-50
2024/03/19 06:36:13;;;;;;;0.10;0.10;;;22.00;40.10;;;;;;5017183;28;20200;-50
2024/03/19 06:38:44;;;;;;;0.00;0.00;;;22.00;40.20;;;;;;5017713;28;20228;-50
2024/03/19 06:41:16;;;;;;;0.00;0.00;;;21.90;40.10;;;;;;5017938;28;20236;-48
2024/03/19 06:43:47;;;;;;;0.00;0.00;;;22.00;40.20;;;;;;5043787;22;20236;-46
2024/03/19 06:46:17;;;;;;;0.08;0.08;;;21.90;40.30;;;;;;5032086;28;20196;-47
2024/03/19 06:48:48;;;;;;;0.00;0.00;;;21.90;40.30;;;;;;5036794;28;20211;-49
2024/03/19 06:51:19;;;;;;;0.00;0.00;;;21.90;40.30;;;;;;5037305;28;20200;-49
2024/03/19 06:53:49;;;;;;;0.00;0.00;;;21.90;40.30;;;;;;5036434;28;20208;-47
2024/03/19 06:56:22;;;;;;;0.00;0.00;;;21.80;40.30;;;;;;5028057;28;20270;-48
2024/03/19 06:58:52;;;;;;;0.00;0.00;;;21.80;40.30;;;;;;5018016;28;20231;-47
2024/03/19 07:01:23;;;;;;;0.00;0.00;;;21.80;40.30;;;;;;5033156;28;20204;-49
2024/03/19 07:03:53;;;;;;;0.00;0.00;;;21.80;40.40;;;;;;5013316;28;20302;-47
2024/03/19 07:06:24;;;;;;;0.00;0.00;;;21.80;40.50;;;;;;5013525;28;20207;-48
2024/03/19 07:08:55;;;;;;;0.00;0.00;;;21.80;40.50;;;;;;5021476;28;20258;-46
2024/03/19 07:11:27;;;;;;;0.00;0.00;;;21.70;40.50;;;;;;5034337;28;20200;-48
2024/03/19 07:13:59;;;;;;;0.00;0.00;;;21.70;40.50;;;;;;5033672;28;20251;-46
2024/03/19 07:16:31;;;;;;;0.10;0.10;;;21.70;41.20;;;;;;5033966;28;20208;-48
2024/03/19 07:19:01;;;;;;;0.10;0.10;;;21.70;40.60;;;;;;5034032;28;20223;-46
2024/03/19 07:21:33;;;;;;;0.00;0.00;;;21.70;40.70;;;;;;5032331;28;20295;-46
2024/03/19 07:24:03;;;;;;;0.00;0.00;;;21.70;40.70;;;;;;5033281;28;20377;-46
2024/03/19 07:26:36;;;;;;;0.10;0.10;;;21.70;40.80;;;;;;5033509;28;20252;-48
2024/03/19 07:29:07;;;;;;;0.10;0.10;;;21.70;40.80;;;;;;5034006;28;20643;-48
2024/03/19 07:31:40;;;;;;;0.10;0.10;;;21.60;40.80;;;;;;5033642;28;20200;-46
2024/03/19 07:34:10;;;;;;;0.00;0.00;;;21.60;40.90;;;;;;5030561;28;20228;-48
2024/03/19 07:36:41;;;;;;;0.00;0.00;;;21.60;40.80;;;;;;5030737;28;20208;-51
2024/03/19 07:39:13;;;;;;;0.00;0.00;;;21.60;40.90;;;;;;5030061;28;20700;-50
2024/03/19 07:41:49;;;;;;;0.00;0.00;;;21.60;41.00;;;;;;5030312;28;20642;-49
2024/03/19 07:44:19;;;;;;;0.00;0.00;;;21.60;41.00;;;;;;5026489;28;20228;-47
2024/03/19 07:46:50;;;;;;;0.00;0.00;;;21.60;41.10;;;;;;5028759;28;20195;-50
2024/03/19 07:49:20;;;;;;;0.08;0.08;;;21.60;41.10;;;;;;5030316;28;20208;-48
2024/03/19 07:51:51;;;;;;;0.00;0.00;;;21.60;41.10;;;;;;5030140;28;20203;-46
2024/03/19 07:54:27;;;;;;;0.10;0.10;;;21.60;41.10;;;;;;5030431;28;20228;-46
2024/03/19 07:57:00;;;;;;;0.00;0.00;;;21.50;41.10;;;;;;5029104;28;20235;-48
2024/03/19 07:59:30;;;;;;;0.00;0.00;;;21.50;41.10;;;;;;5029637;28;20224;-47
2024/03/19 08:02:01;;;;;;;0.00;0.00;;;21.50;41.30;;;;;;5028912;28;20205;-46
2024/03/19 08:04:31;;;;;;;0.03;0.03;;;21.50;41.30;;;;;;5010639;28;20256;-48
2024/03/19 08:07:02;;;;;;;0.10;0.10;;;21.50;41.30;;;;;;5010112;28;20722;-50
2024/03/19 08:09:33;;;;;;;0.10;0.10;;;21.50;41.40;;;;;;5010313;28;20232;-53
2024/03/19 08:12:06;;;;;;;0.00;0.00;;;21.50;41.50;;;;;;5009370;28;20224;-48
2024/03/19 08:14:37;;;;;;;0.00;0.00;;;21.40;41.50;;;;;;5009850;28;20696;-51
2024/03/19 08:17:07;;;;;;;0.03;0.03;;;21.40;41.50;;;;;;5024303;28;20740;-49
2024/03/19 08:19:38;;;;;;;0.00;0.00;;;21.40;41.50;;;;;;5028830;28;20340;-47
2024/03/19 08:22:09;;;;;;;0.10;0.10;;;21.40;41.60;;;;;;5029320;28;20250;-46
2024/03/19 08:24:39;;;;;;;0.00;0.00;;;21.40;41.60;;;;;;5028412;28;20260;-50
2024/03/19 08:27:12;;;;;;;0.10;0.10;;;21.40;41.60;;;;;;5029261;28;20656;-48
2024/03/19 08:29:43;;;;;;;0.00;0.00;;;21.30;41.70;;;;;;5029602;28;20265;-48
2024/03/19 08:32:13;;;;;;;0.00;0.00;;;21.40;41.70;;;;;;5029426;28;20265;-47
2024/03/19 08:34:44;;;;;;;0.00;0.00;;;21.30;41.70;;;;;;5029769;28;20400;-48
2024/03/19 08:37:15;;;;;;;0.00;0.00;;;21.30;41.70;;;;;;5030615;28;20193;-50
2024/03/19 08:39:45;;;;;;;0.10;0.10;;;21.30;41.70;;;;;;5032952;28;20263;-49
2024/03/19 08:42:18;;;;;;;0.00;0.00;;;21.30;41.80;;;;;;5033179;28;20196;-47
2024/03/19 08:44:48;;;;;;;0.00;0.00;;;21.20;41.80;;;;;;5032642;28;20203;-46
2024/03/19 08:47:19;;;;;;;0.10;0.10;;;21.20;41.80;;;;;;5032022;28;20254;-47
2024/03/19 08:49:50;;;;;;;0.00;0.00;;;21.20;41.80;;;;;;5032597;28;20207;-49
2024/03/19 08:52:21;;;;;;;0.10;0.10;;;21.20;41.80;;;;;;5032477;28;20682;-46
2024/03/19 08:54:51;;;;;;;0.00;0.00;;;21.20;41.90;;;;;;5029021;28;20651;-47
2024/03/19 08:57:24;;;;;;;0.10;0.10;;;21.10;41.80;;;;;;5032632;28;20726;-46
2024/03/19 08:59:54;;;;;;;0.00;0.00;;;21.10;41.90;;;;;;5031891;28;20591;-47
2024/03/19 09:02:25;;;;;;;0.00;0.00;;;21.10;41.90;;;;;;5031168;28;20192;-46
2024/03/19 09:04:56;;;;;;;0.00;0.00;;;21.10;41.90;;;;;;5032165;28;20188;-48
2024/03/19 09:07:26;;;;;;;0.00;0.00;;;21.00;41.90;;;;;;5032584;28;20200;-47
2024/03/19 09:09:57;;;;;;;0.00;0.00;;;21.00;42.00;;;;;;5032225;28;20196;-46
2024/03/19 09:12:29;;;;;;;0.00;0.00;;;21.00;42.00;;;;;;5031837;28;20250;-47
2024/03/19 09:15:00;;;;;;;0.10;0.10;;;21.00;42.00;;;;;;5032008;28;20719;-47
2024/03/19 09:17:30;;;;;;;0.00;0.00;;;21.00;42.10;;;;;;5031655;28;20204;-48
2024/03/19 09:20:01;;;;;;;0.00;0.00;;;21.00;42.10;;;;;;5019971;28;20323;-49
2024/03/19 09:22:32;;;;;;;0.10;0.10;;;20.90;42.10;;;;;;5017952;28;20215;-47
2024/03/19 09:25:03;;;;;;;0.00;0.00;;;20.90;42.10;;;;;;5027425;28;20652;-46
2024/03/19 09:27:39;;;;;;;0.00;0.00;;;20.90;42.20;;;;;;5027718;28;20287;-46
2024/03/19 09:30:12;;;;;;;0.10;0.10;;;20.90;42.20;;;;;;5027459;28;20203;-50
2024/03/19 09:32:43;;;;;;;0.10;0.10;;;20.90;42.20;;;;;;5027596;28;20223;-45
2024/03/19 09:35:13;;;;;;;0.00;0.00;;;20.80;42.20;;;;;;5028246;28;20208;-45
2024/03/19 09:37:44;;;;;;;0.00;0.00;;;20.80;42.20;;;;;;5024025;28;20199;-45
2024/03/19 09:40:16;;;;;;;0.00;0.00;;;20.80;42.20;;;;;;5028389;28;20224;-48
2024/03/19 09:42:49;;;;;;;0.10;0.10;;;20.80;42.20;;;;;;5028548;28;20278;-47
2024/03/19 09:45:28;;;;;;;0.00;0.00;;;20.80;42.20;;;;;;5026045;28;20258;-47
2024/03/19 09:47:59;;;;;;;0.08;0.08;;;20.70;42.20;;;;;;5027996;28;20196;-46
2024/03/19 09:50:30;;;;;;;0.10;0.10;;;20.70;42.30;;;;;;5027326;28;20215;-46
2024/03/19 09:53:01;;;;;;;0.10;0.10;;;20.70;42.30;;;;;;5027068;28;20224;-45
2024/03/19 09:55:32;;;;;;;0.10;0.10;;;20.70;42.30;;;;;;5028246;28;20200;-46
2024/03/19 09:58:05;;;;;;;0.00;0.00;;;20.70;42.30;;;;;;5027081;28;20208;-47
2024/03/19 10:00:36;;;;;;;0.00;0.00;;;20.70;42.40;;;;;;5027296;28;20234;-47
2024/03/19 10:03:07;;;;;;;0.00;0.00;;;20.60;42.40;;;;;;5027828;28;20235;-47
2024/03/19 10:05:37;;;;;;;0.00;0.00;;;20.60;42.40;;;;;;5027906;28;20314;-52
2024/03/19 10:08:10;;;;;;;0.10;0.10;;;20.60;42.40;;;;;;5027837;28;20236;-50
2024/03/19 10:10:40;;;;;;;0.00;0.00;;;20.50;42.40;;;;;;5027933;28;20208;-46
2024/03/19 10:13:16;;;;;;;0.00;0.00;;;20.50;42.40;;;;;;5027561;28;20647;-49
2024/03/19 10:15:51;;;;;;;0.00;0.00;;;20.50;42.40;;;;;;5028006;28;20199;-48
2024/03/19 10:18:24;;;;;;;0.00;0.00;;;20.50;42.50;;;;;;5027656;28;20419;-46
2024/03/19 10:21:00;;;;;;;0.00;0.00;;;20.50;42.50;;;;;;5027764;28;20707;-48
2024/03/19 10:23:32;;;;;;;0.00;0.00;;;20.40;42.50;;;;;;5027349;28;20227;-46
2024/03/19 10:26:03;;;;;;;0.10;0.10;;;20.40;42.50;;;;;;5027040;28;20619;-46
2024/03/19 10:28:35;;;;;;;0.00;0.00;;;20.40;42.50;;;;;;5027596;28;20610;-48
2024/03/19 10:31:07;;;;;;;0.10;0.10;;;20.40;42.50;;;;;;5027222;28;20294;-45
2024/03/19 10:33:39;;;;;;;0.00;0.00;;;20.30;42.40;;;;;;5027075;28;20589;-46
2024/03/19 10:36:16;;;;;;;0.10;0.10;;;20.30;42.50;;;;;;5026733;28;20283;-46
2024/03/19 10:38:47;;;;;;;0.00;0.00;;;20.30;42.50;;;;;;5026749;28;20203;-44
2024/03/19 10:41:18;;;;;;;0.00;0.00;;;20.30;42.50;;;;;;5027299;28;20223;-44
2024/03/19 10:43:52;;;;;;;0.00;0.00;;;20.20;42.50;;;;;;5027217;28;20231;-46
2024/03/19 10:46:23;;;;;;;0.00;0.00;;;20.20;42.50;;;;;;5027328;28;20232;-45
2024/03/19 10:48:54;;;;;;;0.03;0.03;;;20.20;42.50;;;;;;5026721;28;20227;-44
2024/03/19 10:51:26;;;;;;;0.10;0.10;;;20.20;42.60;;;;;;5027902;28;20215;-44
2024/03/19 10:54:00;;;;;;;0.03;0.03;;;20.20;42.60;;;;;;5026639;28;20231;-46
2024/03/19 10:56:31;;;;;;;0.08;0.08;;;20.20;42.60;;;;;;5026842;28;20193;-47
2024/03/19 10:59:04;;;;;;;0.10;0.10;;;20.10;42.50;;;;;;5022980;28;20285;-47
2024/03/19 11:01:45;;;;;;;0.10;0.10;;;20.10;42.60;;;;;;5006642;28;20570;-48
2024/03/19 11:04:16;;;;;;;0.03;0.03;;;20.10;42.60;;;;;;5020414;28;20226;-48
2024/03/19 11:06:58;;;;;;;0.00;0.00;;;20.10;42.60;;;;;;5026368;28;20200;-45
2024/03/19 11:09:29;;;;;;;0.00;0.00;;;20.10;42.60;;;;;;5028602;28;20212;-44
2024/03/19 11:12:02;;;;;;;0.10;0.10;;;20.00;42.60;;;;;;5030021;28;20293;-45
2024/03/19 11:14:35;;;;;;;0.10;0.10;;;20.00;42.60;;;;;;5030026;28;20741;-45
2024/03/19 11:17:16;;;;;;;0.00;0.00;;;20.00;42.60;;;;;;5030372;28;20227;-46
2024/03/19 11:19:55;;;;;;;0.10;0.10;;;20.00;42.60;;;;;;5030688;28;20672;-48
2024/03/19 11:22:27;;;;;;;0.10;0.10;;;20.00;42.60;;;;;;5030365;28;20712;-44
2024/03/19 11:24:57;;;;;;;0.05;0.05;;;19.90;42.60;;;;;;5030622;28;20302;-45
2024/03/19 11:27:35;;;;;;;0.10;0.10;;;19.90;42.60;;;;;;5031508;28;20566;-45
2024/03/19 11:30:14;;;;;;;0.00;0.00;;;19.90;42.70;;;;;;5031731;28;20207;-44
2024/03/19 11:32:46;;;;;;;0.03;0.03;;;19.90;42.70;;;;;;5031820;28;20265;-46
2024/03/19 11:35:24;;;;;;;0.10;0.10;;;19.90;42.70;;;;;;5033528;28;20549;-45
2024/03/19 11:37:56;;;;;;;0.00;0.00;;;19.80;42.70;;;;;;5033718;28;20599;-45
2024/03/19 11:40:27;;;;;;;0.00;0.00;;;19.80;42.70;;;;;;5033196;28;20211;-45
2024/03/19 11:42:58;;;;;;;0.05;0.05;;;19.80;42.70;;;;;;5033677;28;20691;-44
2024/03/19 11:45:31;;;;;;;0.10;0.10;;;19.80;42.70;;;;;;5033685;28;20545;-44
2024/03/19 11:48:02;;;;;;;0.00;0.00;;;19.80;42.70;;;;;;5030752;28;20207;-45
2024/03/19 11:50:33;;;;;;;0.03;0.03;;;19.70;42.70;;;;;;5033731;28;20268;-46
2024/03/19 11:53:03;;;;;;;0.00;0.00;;;19.70;42.70;;;;;;5031263;28;20270;-45
2024/03/19 11:55:34;;;;;;;0.05;0.05;;;19.70;42.70;;;;;;5032813;28;20196;-48
2024/03/19 11:58:05;;;;;;;0.00;0.00;;;19.70;42.70;;;;;;5032594;28;20191;-46
2024/03/19 12:00:38;;;;;;;0.00;0.00;;;19.70;42.70;;;;;;5030339;28;20218;-44
2024/03/19 12:03:09;;;;;;;0.00;0.00;;;19.70;42.70;;;;;;5032744;28;20282;-46
2024/03/19 12:05:45;;;;;;;0.00;0.00;;;19.60;42.60;;;;;;5030921;28;20192;-46
2024/03/19 12:08:16;;;;;;;0.00;0.00;;;19.60;42.70;;;;;;5030544;28;20380;-44
2024/03/19 12:10:48;;;;;;;0.10;0.10;;;19.60;42.70;;;;;;5033163;28;20254;-43
2024/03/19 12:13:19;;;;;;;0.00;0.00;;;19.60;42.70;;;;;;5030843;28;20224;-44
2024/03/19 12:15:53;;;;;;;0.00;0.00;;;19.60;42.70;;;;;;5032937;28;20293;-45
2024/03/19 12:18:24;;;;;;;0.10;0.10;;;19.50;42.70;;;;;;5033087;28;20188;-44
2024/03/19 12:20:54;;;;;;;0.10;0.10;;;19.50;42.80;;;;;;5032412;28;20224;-45
2024/03/19 12:23:26;;;;;;;0.00;0.00;;;19.50;42.80;;;;;;5032963;28;20262;-44
2024/03/19 12:25:57;;;;;;;0.00;0.00;;;19.50;42.80;;;;;;5030143;28;20192;-45
2024/03/19 12:28:28;;;;;;;0.10;0.10;;;19.50;42.80;;;;;;5032891;28;20192;-44
2024/03/19 12:31:02;;;;;;;0.10;0.10;;;19.40;42.80;;;;;;5030641;28;20188;-45
2024/03/19 12:33:40;;;;;;;0.10;0.10;;;19.40;42.80;;;;;;5032715;28;20277;-45
2024/03/19 12:36:11;;;;;;;0.00;0.00;;;19.40;42.80;;;;;;5032491;28;20192;-47
2024/03/19 12:38:42;;;;;;;0.00;0.00;;;19.40;42.80;;;;;;5032371;28;20192;-47
2024/03/19 12:41:14;;;;;;;0.08;0.08;;;19.40;42.80;;;;;;5031642;28;20311;-45
2024/03/19 12:43:44;;;;;;;0.10;0.10;;;19.40;42.80;;;;;;5032051;28;20219;-46
2024/03/19 12:46:17;;;;;;;0.00;0.00;;;19.40;42.80;;;;;;5031787;28;20198;-43
2024/03/19 12:48:47;;;;;;;0.00;0.00;;;19.40;42.80;;;;;;5032165;28;20239;-43
2024/03/19 12:51:18;;;;;;;0.00;0.00;;;19.30;42.70;;;;;;5031860;28;20682;-44
2024/03/19 12:53:49;;;;;;;0.00;0.00;;;19.30;42.70;;;;;;5032432;28;20578;-44
2024/03/19 12:56:19;;;;;;;0.00;0.00;;;19.30;42.80;;;;;;5033100;28;20204;-44
2024/03/19 12:58:50;;;;;;;0.10;0.10;;;19.30;42.80;;;;;;5033141;28;20566;-46
2024/03/19 13:01:22;;;;;;;0.00;0.00;;;19.20;42.70;;;;;;5032823;28;20223;-48
2024/03/19 13:03:53;;;;;;;0.10;0.10;;;19.20;42.80;;;;;;5029377;28;20248;-45
2024/03/19 13:06:23;;;;;;;0.10;0.10;;;19.20;42.80;;;;;;5032713;28;20266;-46
2024/03/19 13:08:54;;;;;;;0.05;0.05;;;19.20;42.80;;;;;;5032625;28;20195;-47
2024/03/19 13:11:26;;;;;;;0.10;0.10;;;19.20;42.80;;;;;;5032540;28;20207;-43